• Join FlightAware (Why Join?)
  • Login
  • US Flag 
07:28PM EDT


 

Airport Tracker/Info


-or-


 

Live Flight TrackerFlight Track Log ✈ N652GD ✈ 24-Mar-2011 ✈ KTEX - KROW

Flight Track Log - Related Links

Times and Time Zones

All times are in EDT time to prevent confusion due to time zone crossing. See the N652GD flight status page for this flight to view local times or setup timezone preferences in your user account.

Time Position Orientation Groundspeed Altitude Reporting Facility
EDT Latitude Longitude Course Direction KTS MPH feet Rate Location/Type
12:21PM 37.9897 -108.0481 274° West 325 374 15,600  Level Denver Center
12:22PM 37.9964 -108.1667 194° South 309 356 18,500 3,420 Climbing Denver Center
12:23PM 37.9083 -108.1936 188° South 260 299 22,500 3,600 Climbing Denver Center
12:24PM 37.8144 -108.2097 182° South 298 343 25,800 2,100 Climbing Denver Center
12:25PM 37.7183 -108.2150 175° South 364 419 26,800 600 Climbing Denver Center
12:26PM 37.5978 -108.2017 175° South 394 453 27,000 60 Climbing Denver Center
12:27PM 37.4894 -108.1886 176° South 399 459 27,000  Level Denver Center
12:28PM 37.3792 -108.1781 177° South 404 465 27,000  Level Denver Center
12:29PM 37.2794 -108.1706 174° South 409 471 27,000  Level Denver Center
12:30PM 37.1586 -108.1547 171° South 404 465 27,000  Level Denver Center
12:31PM 37.0464 -108.1314 173° South 413 475 27,000  Level Denver Center
12:32PM 36.9383 -108.1158 174° South 407 468 27,000  Level Denver Center
12:33PM 36.8364 -108.1033 171° South 413 475 27,000  Level Denver Center
12:34PM 36.7242 -108.0800 149° Southeast 408 470 27,100  Climbing Denver Center
12:35PM 36.6128 -107.9975 149° Southeast 413 475 27,000 -60 Descending Denver Center
12:36PM 36.5117 -107.9206 148° Southeast 426 490 27,000  Level Denver Center
12:37PM 36.3369 -107.7842 149° Southeast 434 499 27,000  Level Albuquerque Center
12:38PM 36.2328 -107.7061 149° Southeast 434 499 27,000  Level Albuquerque Center
12:39PM 36.1206 -107.6236 148° Southeast 434 499 27,000  Level Albuquerque Center
12:40PM 36.0206 -107.5461 149° Southeast 434 499 27,000  Level Albuquerque Center
12:41PM 35.9244 -107.4742 149° Southeast 434 499 27,000  Level Albuquerque Center
12:42PM 35.8222 -107.3997 148° Southeast 434 499 27,000  Level Albuquerque Center
12:43PM 35.7097 -107.3125 150° Southeast 428 493 27,000  Level Albuquerque Center
12:44PM 35.6075 -107.2386 149° Southeast 428 493 27,000  Level Albuquerque Center
12:45PM 35.5114 -107.1672 148° Southeast 428 493 27,000  Level Albuquerque Center
12:46PM 35.4069 -107.0858 149° Southeast 438 504 27,000  Level Albuquerque Center
12:47PM 35.2897 -106.9997 147° Southeast 444 511 27,000  Level Albuquerque Center
12:48PM 35.1872 -106.9189 151° Southeast 448 516 27,000  Level Albuquerque Center
12:49PM 35.0889 -106.8511 138° Southeast 448 516 27,000  Level Albuquerque Center
12:50PM 34.9967 -106.7500 124° Southeast 448 516 27,100  Climbing Albuquerque Center
12:51PM 34.9144 -106.5989 126° Southeast 478 550 27,000 -60 Descending Albuquerque Center
12:52PM 34.8425 -106.4781 125° Southeast 487 560 27,000  Level Albuquerque Center
12:53PM 34.7642 -106.3422 126° Southeast 494 568 27,000  Level Albuquerque Center
12:54PM 34.6858 -106.2119 126° Southeast 494 568 27,000  Level Albuquerque Center
12:55PM 34.6053 -106.0792 126° Southeast 494 568 27,000  Level Albuquerque Center
12:56PM 34.5181 -105.9344 127° Southeast 494 568 27,000  Level Albuquerque Center
12:57PM 34.4350 -105.8000 126° Southeast 494 568 27,000  Level Albuquerque Center
12:58PM 34.3561 -105.6706 139° Southeast 499 574 27,100  Climbing Albuquerque Center
12:59PM 34.2586 -105.5669 139° Southeast 478 550 27,000 -60 Descending Albuquerque Center
01:00PM 34.1569 -105.4614 138° Southeast 467 537 27,000 -240 Level Albuquerque Center
01:01PM 34.0592 -105.3558 139° Southeast 472 543 26,600 -1,200 Descending Albuquerque Center
01:02PM 33.9742 -105.2653 140° Southeast 461 531 24,600 -2,280 Descending Albuquerque Center
01:03PM 33.8722 -105.1628 140° Southeast 455 524 22,100 -3,600 Descending Albuquerque Center
01:04PM 33.7914 -105.0800 140° Southeast 437 503 17,500 -4,740 Descending Albuquerque Center
01:05PM 33.6911 -104.9778 143° Southeast 429 494 12,700 -4,020 Descending Albuquerque Center
01:06PM 33.6169 -104.9100 142° Southeast 395 455 9,500 -3,240 Descending Albuquerque Center
01:11PM 33.5305 -104.8289 142° Southeast  Level FlightAware Approximate